Time;durP1;ratioP1;P1;durP2;ratioP2;P2;SDS_P1;SDS_P2;PMS_P1;PMS_P2;Temp;Humidity;BMP_temperature;BMP_pressure;BME280_temperature;BME280_humidity;BME280_pressure;Samples;Min_cycle;Max_cycle;Signal;HPM_P1;HPM_P2
2022/11/16 00:02:01;;;;;;;;;1.00;1.00;;;;;12.98;100.00;99756.28;5050242;28;45368;-75
2022/11/16 00:04:26;;;;;;;;;1.33;0.00;;;;;12.94;100.00;99754.56;5035584;28;48372;-76
2022/11/16 00:06:52;;;;;;;;;1.00;1.00;;;;;12.95;100.00;99764.28;5051291;28;62945;-75
2022/11/16 00:09:25;;;;;;;;;0.00;0.00;;;;;12.92;100.00;99758.16;5032823;28;45481;-76
2022/11/16 00:11:55;;;;;;;;;2.00;0.67;;;;;12.91;100.00;99767.00;5055096;28;45609;-75
2022/11/16 00:14:22;;;;;;;;;1.00;1.00;;;;;12.89;100.00;99759.09;5036772;28;45823;-75
2022/11/16 00:16:47;;;;;;;;;1.00;0.00;;;;;12.87;100.00;99760.00;5027580;28;45316;-75
2022/11/16 00:19:13;;;;;;;;;0.00;0.00;;;;;12.85;100.00;99760.91;5049699;28;58008;-75
2022/11/16 00:21:38;;;;;;;;;0.67;0.33;;;;;12.83;100.00;99751.22;5036571;28;57300;-75
2022/11/16 00:24:04;;;;;;;;;0.00;0.00;;;;;12.82;100.00;99763.59;5039662;28;46266;-75
2022/11/16 00:26:30;;;;;;;;;1.33;1.00;;;;;12.79;100.00;99754.84;5039299;28;45617;-75
2022/11/16 00:28:55;;;;;;;;;1.33;0.67;;;;;12.77;100.00;99764.56;5041061;28;45318;-75
2022/11/16 00:31:21;;;;;;;;;3.00;0.00;;;;;12.75;100.00;99761.06;5028405;28;45582;-75
2022/11/16 00:33:48;;;;;;;;;1.00;1.00;;;;;12.75;100.00;99769.88;5048330;28;48684;-75
2022/11/16 00:36:13;;;;;;;;;0.00;0.00;;;;;12.72;100.00;99755.81;5058526;28;45622;-75
2022/11/16 00:38:39;;;;;;;;;0.00;0.00;;;;;12.73;100.00;99763.75;5060037;28;45572;-75
2022/11/16 00:41:06;;;;;;;;;1.00;1.00;;;;;12.71;100.00;99754.06;5056877;28;45289;-75
2022/11/16 00:43:33;;;;;;;;;0.00;0.00;;;;;12.71;100.00;99756.72;5041470;28;48787;-75
2022/11/16 00:45:58;;;;;;;;;1.00;1.00;;;;;12.72;100.00;99761.09;5058211;28;45478;-75
2022/11/16 00:48:23;;;;;;;;;3.00;0.00;;;;;12.72;100.00;99764.63;5053506;28;45426;-75
2022/11/16 00:50:49;;;;;;;;;1.33;0.00;;;;;12.69;100.00;99762.03;5065523;28;45532;-75
2022/11/16 00:53:16;;;;;;;;;2.33;0.00;;;;;12.72;100.00;99756.69;5056749;28;58138;-75
2022/11/16 00:55:42;;;;;;;;;2.00;1.00;;;;;12.73;100.00;99766.41;5056820;28;46258;-75
2022/11/16 00:58:08;;;;;;;;;1.00;1.00;;;;;12.71;100.00;99760.22;5058859;28;45249;-76
2022/11/16 01:00:33;;;;;;;;;0.00;0.00;;;;;12.68;100.00;99751.47;5073846;28;57133;-75
2022/11/16 01:02:58;;;;;;;;;2.33;0.00;;;;;12.68;100.00;99768.25;5057258;28;53363;-75
2022/11/16 01:05:24;;;;;;;;;0.00;0.00;;;;;12.67;100.00;99769.09;5056436;28;55893;-76
2022/11/16 01:07:50;;;;;;;;;3.00;1.00;;;;;12.70;100.00;99766.44;5058110;28;45732;-76
2022/11/16 01:10:19;;;;;;;;;4.00;0.00;;;;;12.73;100.00;99769.03;5072963;27;45623;-75
2022/11/16 01:12:45;;;;;;;;;0.00;0.00;;;;;12.78;100.00;99761.00;5071769;27;45882;-75
2022/11/16 01:15:11;;;;;;;;;2.33;0.00;;;;;12.82;100.00;99760.06;5057965;28;45568;-75
2022/11/16 01:17:37;;;;;;;;;2.00;1.00;;;;;12.87;100.00;99757.34;5057362;28;45311;-75
2022/11/16 01:20:05;;;;;;;;;1.00;1.00;;;;;12.89;100.00;99759.09;5058166;28;45385;-75
2022/11/16 01:22:31;;;;;;;;;0.00;0.00;;;;;12.93;100.00;99760.78;5057233;28;46755;-75
2022/11/16 01:24:56;;;;;;;;;1.00;0.00;;;;;12.95;100.00;99764.28;5058225;28;45424;-75
2022/11/16 01:27:21;;;;;;;;;0.00;0.00;;;;;12.99;100.00;99759.78;5057435;28;59055;-75
2022/11/16 01:29:47;;;;;;;;;2.00;0.67;;;;;13.00;100.00;99754.50;5057756;28;45274;-76
2022/11/16 01:32:12;;;;;;;;;2.33;0.00;;;;;13.03;100.00;99754.44;5057717;28;45520;-75
2022/11/16 01:34:37;;;;;;;;;1.00;0.00;;;;;13.06;100.00;99751.75;5098885;22;47993;-75
2022/11/16 01:37:03;;;;;;;;;0.00;0.00;;;;;13.08;100.00;99746.41;5094202;27;45470;-76
2022/11/16 01:39:28;;;;;;;;;0.00;0.00;;;;;13.05;100.00;99754.44;5097032;27;45294;-76
2022/11/16 01:41:54;;;;;;;;;1.00;0.00;;;;;13.00;100.00;99749.19;5097227;27;46373;-75
2022/11/16 01:44:31;;;;;;;;;0.00;0.00;;;;;12.98;100.00;99750.97;5075980;27;69259;-75
2022/11/16 01:47:06;;;;;;;;;4.00;1.00;;;;;12.94;100.00;99745.75;5098236;27;45304;-75
2022/11/16 01:49:34;;;;;;;;;1.00;0.00;;;;;12.90;100.00;99752.03;5093320;27;45485;-74
2022/11/16 01:52:20;;;;;;;;;1.00;0.00;;;;;12.86;100.00;99737.94;5093140;27;45760;-75
2022/11/16 01:54:47;;;;;;;;;2.33;0.00;;;;;12.81;100.00;99751.25;5077494;27;45344;-76
2022/11/16 01:57:16;;;;;;;;;3.00;0.00;;;;;12.76;100.00;99753.09;5080479;27;45501;-76
2022/11/16 01:59:43;;;;;;;;;0.00;0.00;;;;;12.75;100.00;99755.78;5097976;27;45522;-75
2022/11/16 02:02:08;;;;;;;;;2.00;1.00;;;;;12.71;100.00;99746.97;5078710;27;61636;-75
2022/11/16 02:04:33;;;;;;;;;0.00;0.00;;;;;12.70;100.00;99747.88;5097877;27;58604;-76
2022/11/16 02:07:22;;;;;;;;;1.00;0.00;;;;;12.66;100.00;99743.53;5097460;27;52770;-76
2022/11/16 02:09:57;;;;;;;;;2.00;0.00;;;;;12.66;100.00;99750.59;5073695;27;45380;-75
2022/11/16 02:12:29;;;;;;;;;0.33;0.00;;;;;12.65;100.00;99751.50;5097721;27;45931;-75
2022/11/16 02:14:54;;;;;;;;;1.67;0.00;;;;;12.64;100.00;99757.72;5098737;27;45307;-75
2022/11/16 02:17:35;;;;;;;;;2.00;0.00;;;;;12.62;100.00;99755.06;5085060;27;45338;-76
2022/11/16 02:20:21;;;;;;;;;0.67;0.67;;;;;12.58;100.00;99762.19;5071357;28;45429;-76
2022/11/16 02:23:04;;;;;;;;;1.00;0.00;;;;;12.54;100.00;99749.88;5080370;27;45525;-75
2022/11/16 02:25:44;;;;;;;;;0.00;0.00;;;;;12.57;100.00;99756.94;5081404;27;45365;-76
2022/11/16 02:28:20;;;;;;;;;0.00;0.00;;;;;12.57;100.00;99764.88;5081948;27;45285;-75
2022/11/16 02:30:48;;;;;;;;;3.00;0.00;;;;;12.54;100.00;99757.84;5069253;27;45414;-75
2022/11/16 02:33:18;;;;;;;;;0.00;0.00;;;;;12.52;100.00;99756.13;5090753;27;45882;-75
2022/11/16 02:35:47;;;;;;;;;0.00;0.00;;;;;12.51;100.00;99751.69;5078289;27;45530;-75
2022/11/16 02:38:18;;;;;;;;;1.00;1.00;;;;;12.52;100.00;99754.34;5091996;27;45380;-76
2022/11/16 02:40:48;;;;;;;;;1.00;0.00;;;;;12.50;100.00;99748.16;5079453;27;45395;-74
2022/11/16 02:43:29;;;;;;;;;0.33;0.00;;;;;12.46;100.00;99745.59;5075684;27;46720;-75
2022/11/16 02:45:57;;;;;;;;;3.00;0.00;;;;;12.45;100.00;99749.13;5063463;27;45320;-75
2022/11/16 02:48:27;;;;;;;;;1.33;0.00;;;;;12.43;100.00;99751.81;5074494;27;45396;-76
2022/11/16 02:50:52;;;;;;;;;1.33;0.00;;;;;12.38;100.00;99750.13;5096389;27;45477;-75
2022/11/16 02:53:22;;;;;;;;;0.00;0.00;;;;;12.40;100.00;99741.25;5072849;27;45720;-75
2022/11/16 02:55:47;;;;;;;;;0.00;0.00;;;;;12.38;100.00;99736.88;5093554;27;45386;-75
2022/11/16 02:58:17;;;;;;;;;2.67;0.00;;;;;12.39;100.00;99736.00;5079204;27;45741;-75
2022/11/16 03:00:59;;;;;;;;;0.00;0.00;;;;;12.40;100.00;99738.59;5079011;27;45317;-75
2022/11/16 03:03:29;;;;;;;;;0.00;0.00;;;;;12.40;100.00;99740.38;5089811;27;45767;-75
2022/11/16 03:06:12;;;;;;;;;3.33;0.00;;;;;12.37;100.00;99735.16;5075165;27;45362;-75
2022/11/16 03:08:41;;;;;;;;;0.00;0.00;;;;;12.42;100.00;99750.06;5073758;27;45304;-76
2022/11/16 03:14:01;;;;;;;;;0.00;0.00;;;;;12.47;100.00;99736.78;5095757;27;45851;-75
2022/11/16 03:16:55;;;;;;;;;2.67;0.00;;;;;12.47;100.00;99728.81;5075900;27;45457;-76
2022/11/16 03:19:28;;;;;;;;;1.00;0.00;;;;;12.48;100.00;99728.78;5075993;27;45504;-75
2022/11/16 03:22:08;;;;;;;;;0.00;0.00;;;;;12.49;100.00;99725.25;5084393;27;45613;-75
2022/11/16 03:24:33;;;;;;;;;0.67;0.00;;;;;12.48;100.00;99712.91;5072542;28;45531;-75
2022/11/16 03:27:05;;;;;;;;;0.00;0.00;;;;;12.50;100.00;99713.75;5055206;27;60508;-75
2022/11/16 03:29:30;;;;;;;;;1.00;0.00;;;;;12.53;100.00;99712.84;5088692;27;45481;-75
2022/11/16 03:32:03;;;;;;;;;2.00;0.00;;;;;12.49;100.00;99711.13;5096101;27;45540;-75
2022/11/16 03:34:31;;;;;;;;;1.33;0.67;;;;;12.47;100.00;99711.16;5078253;27;45696;-75
2022/11/16 03:36:58;;;;;;;;;0.00;0.00;;;;;12.45;100.00;99712.06;5068603;27;45516;-75
2022/11/16 03:39:29;;;;;;;;;0.67;0.00;;;;;12.43;100.00;99703.28;5077505;27;57791;-75
2022/11/16 03:41:56;;;;;;;;;0.67;0.67;;;;;12.39;100.00;99699.81;5075965;27;45561;-75
2022/11/16 03:44:21;;;;;;;;;0.00;0.00;;;;;12.40;100.00;99706.84;5072203;27;46848;-75
2022/11/16 03:46:47;;;;;;;;;0.00;0.00;;;;;12.41;100.00;99710.34;5096288;27;45381;-76
2022/11/16 03:49:12;;;;;;;;;0.00;0.00;;;;;12.41;100.00;99698.03;5095449;27;54012;-76
2022/11/16 03:51:37;;;;;;;;;0.00;0.00;;;;;12.41;100.00;99694.47;5096843;27;45406;-75
2022/11/16 03:54:03;;;;;;;;;0.00;0.00;;;;;12.39;100.00;99691.00;5072533;27;55623;-75
2022/11/16 03:56:29;;;;;;;;;0.00;0.00;;;;;12.38;100.00;99699.84;5078211;27;45438;-75
2022/11/16 03:58:54;;;;;;;;;0.00;0.00;;;;;12.32;100.00;99692.84;5078477;27;45769;-75
2022/11/16 04:01:19;;;;;;;;;0.00;0.00;;;;;12.28;100.00;99681.44;5077555;27;49634;-76
2022/11/16 04:03:45;;;;;;;;;1.00;0.00;;;;;12.23;100.00;99680.63;5095500;27;46489;-76
2022/11/16 04:25:51;;;;;;;;;0.00;0.00;;;;;12.07;100.00;99679.09;5074226;27;45366;-75
2022/11/16 04:28:21;;;;;;;;;0.00;0.00;;;;;12.05;100.00;99678.25;5075758;27;45463;-75
2022/11/16 04:39:01;;;;;;;;;0.33;0.00;;;;;11.96;100.00;99671.28;5098456;27;45505;-75
2022/11/16 04:44:13;;;;;;;;;0.00;0.00;;;;;11.94;100.00;99670.44;5095477;27;45209;-75
2022/11/16 04:49:22;;;;;;;;;1.00;0.00;;;;;11.99;100.00;99676.56;5095898;27;45474;-75
2022/11/16 04:51:47;;;;;;;;;0.00;0.00;;;;;12.06;100.00;99679.97;5094595;27;59495;-75
2022/11/16 04:54:13;;;;;;;;;1.00;0.00;;;;;12.12;100.00;99679.03;5095412;27;45516;-75
2022/11/16 04:56:38;;;;;;;;;0.00;0.00;;;;;12.15;100.00;99658.69;5092731;27;45710;-75
2022/11/16 04:59:03;;;;;;;;;1.00;0.00;;;;;12.20;100.00;99662.16;5095471;27;45425;-75
2022/11/16 05:04:13;;;;;;;;;2.33;0.00;;;;;12.29;100.00;99667.28;5096036;27;45404;-76
2022/11/16 05:06:38;;;;;;;;;2.33;0.00;;;;;12.34;100.00;99667.22;5064665;27;66793;-75
2022/11/16 05:09:03;;;;;;;;;1.00;0.00;;;;;12.37;100.00;99672.50;5095185;27;65416;-75
2022/11/16 05:11:29;;;;;;;;;0.00;0.00;;;;;12.38;100.00;99663.66;5095903;27;45646;-75
2022/11/16 05:13:54;;;;;;;;;0.00;0.00;;;;;12.43;100.00;99668.88;5096516;27;57564;-75
2022/11/16 05:16:19;;;;;;;;;2.33;0.00;;;;;12.43;100.00;99663.56;5097902;27;60792;-75
2022/11/16 05:20:59;;;;;;;;;1.00;0.00;;;;;12.41;100.00;99658.31;5097468;27;62976;-75
2022/11/16 05:21:31;;;;;;;;;1.00;0.00;;;;;12.39;100.00;99651.28;5081078;27;45534;-75
2022/11/16 05:24:57;;;;;;;;;0.67;0.00;;;;;12.37;100.00;99666.31;5079782;27;54831;-75
2022/11/16 05:26:51;;;;;;;;;0.67;0.00;;;;;12.31;100.00;99659.34;5081128;27;46277;-75
2022/11/16 05:29:17;;;;;;;;;3.00;0.00;;;;;12.29;100.00;99656.69;5095711;27;45430;-75
2022/11/16 05:31:42;;;;;;;;;0.00;0.00;;;;;12.28;100.00;99656.75;5080533;27;45423;-75
2022/11/16 05:34:09;;;;;;;;;3.00;0.00;;;;;12.22;100.00;99638.31;5094741;27;45496;-75
2022/11/16 05:36:35;;;;;;;;;0.00;0.00;;;;;12.22;100.00;99643.59;5097249;27;45710;-76
2022/11/16 05:39:02;;;;;;;;;0.00;0.00;;;;;12.18;100.00;99655.13;5095856;27;45486;-75
2022/11/16 05:41:27;;;;;;;;;0.00;0.00;;;;;12.18;100.00;99650.69;5078980;27;45505;-74
2022/11/16 05:43:54;;;;;;;;;0.00;0.00;;;;;12.14;100.00;99643.69;5096570;27;52849;-75
2022/11/16 05:46:20;;;;;;;;;0.00;0.00;;;;;12.14;100.00;99648.13;5083078;27;46308;-74
2022/11/16 05:48:45;;;;;;;;;2.00;0.00;;;;;12.13;100.00;99638.44;5089079;27;45712;-73
2022/11/16 05:51:12;;;;;;;;;1.67;0.00;;;;;12.12;100.00;99644.63;5088299;27;60956;-75
2022/11/16 05:53:38;;;;;;;;;0.00;0.00;;;;;12.14;100.00;99650.75;5084479;27;45575;-78
2022/11/16 05:56:03;;;;;;;;;0.00;0.00;;;;;12.14;100.00;99651.63;5075464;27;48047;-76
2022/11/16 05:58:29;;;;;;;;;1.00;0.33;;;;;12.13;100.00;99646.38;5097028;27;46437;-73
2022/11/16 06:00:54;;;;;;;;;2.33;0.00;;;;;12.11;100.00;99640.25;5097284;27;45355;-74
2022/11/16 06:03:19;;;;;;;;;0.33;0.33;;;;;12.13;100.00;99660.47;5095630;27;57675;-76
2022/11/16 06:05:45;;;;;;;;;0.00;0.00;;;;;12.10;100.00;99647.31;5093751;27;64221;-76
2022/11/16 06:08:10;;;;;;;;;1.00;0.00;;;;;12.13;100.00;99649.00;5084686;27;45417;-75
2022/11/16 06:10:35;;;;;;;;;1.00;1.00;;;;;12.13;100.00;99643.72;5093642;27;60723;-75
2022/11/16 06:13:01;;;;;;;;;0.00;0.00;;;;;12.15;100.00;99650.75;5092576;27;45502;-74
2022/11/16 06:15:26;;;;;;;;;1.67;0.00;;;;;12.17;100.00;99641.00;5067061;27;46366;-73
2022/11/16 06:17:52;;;;;;;;;0.67;0.00;;;;;12.18;100.00;99644.53;5070934;27;60449;-75
2022/11/16 06:20:17;;;;;;;;;1.33;0.00;;;;;12.14;100.00;99633.09;5084361;27;45643;-75
2022/11/16 06:22:42;;;;;;;;;1.33;0.00;;;;;12.19;100.00;99643.63;5093213;27;46072;-75
2022/11/16 06:25:09;;;;;;;;;3.00;1.00;;;;;12.19;100.00;99641.84;5070313;27;45888;-75
2022/11/16 06:27:38;;;;;;;;;1.00;0.00;;;;;12.17;100.00;99641.00;5072677;27;46414;-75
2022/11/16 06:30:04;;;;;;;;;0.00;0.00;;;;;12.16;100.00;99627.81;5089401;27;45686;-74
2022/11/16 06:32:30;;;;;;;;;2.33;0.00;;;;;12.16;100.00;99626.03;5093609;27;45482;-75
2022/11/16 06:34:55;;;;;;;;;1.67;0.00;;;;;12.13;100.00;99636.66;5034244;27;1163766;-75
2022/11/16 06:37:20;;;;;;;;;1.67;0.00;;;;;12.16;100.00;99654.28;5074905;27;45874;-74
2022/11/16 06:39:46;;;;;;;;;0.00;0.00;;;;;12.16;100.00;99648.97;5076259;27;45505;-76
2022/11/16 06:42:11;;;;;;;;;0.00;0.00;;;;;12.13;100.00;99641.06;5053419;28;58545;-76
2022/11/16 06:44:36;;;;;;;;;2.00;1.00;;;;;12.14;100.00;99643.69;5091602;27;64948;-75
2022/11/16 06:47:02;;;;;;;;;0.00;0.00;;;;;12.15;100.00;99647.25;5090051;27;45437;-76
2022/11/16 06:49:27;;;;;;;;;0.67;0.67;;;;;12.16;100.00;99648.97;5061234;27;45457;-76
2022/11/16 06:51:53;;;;;;;;;0.00;0.00;;;;;12.12;100.00;99639.34;5073644;27;61240;-76
2022/11/16 06:54:18;;;;;;;;;0.00;0.00;;;;;12.16;100.00;99641.91;5076769;27;54363;-76
2022/11/16 06:56:45;;;;;;;;;1.00;1.00;;;;;12.16;100.00;99647.22;5093172;27;45498;-76
2022/11/16 06:59:10;;;;;;;;;2.00;0.00;;;;;12.16;100.00;99646.34;5082626;27;45939;-75
2022/11/16 07:01:36;;;;;;;;;2.00;0.00;;;;;12.21;100.00;99649.78;5089670;27;45660;-76
2022/11/16 07:04:01;;;;;;;;;2.00;1.00;;;;;12.21;100.00;99644.50;5088460;27;46690;-76
2022/11/16 07:06:27;;;;;;;;;2.00;0.67;;;;;12.24;100.00;99644.44;5084999;27;46051;-76
2022/11/16 07:08:52;;;;;;;;;2.67;0.67;;;;;12.25;100.00;99643.53;5069259;27;63190;-76
2022/11/16 07:11:19;;;;;;;;;0.00;0.00;;;;;12.31;100.00;99631.09;5089290;27;51224;-77
2022/11/16 07:13:44;;;;;;;;;0.00;0.00;;;;;12.32;100.00;99638.16;5078883;27;46655;-78
2022/11/16 07:16:11;;;;;;;;;0.00;0.00;;;;;12.39;100.00;99645.97;5087148;27;45420;-79
2022/11/16 07:18:37;;;;;;;;;2.33;0.67;;;;;12.40;100.00;99643.31;5076044;27;45526;-76
2022/11/16 07:21:07;;;;;;;;;2.00;0.00;;;;;12.40;100.00;99655.66;5075205;27;45503;-75
2022/11/16 07:23:33;;;;;;;;;2.33;1.00;;;;;12.43;100.00;99656.50;5091145;27;46513;-75
2022/11/16 07:26:00;;;;;;;;;2.00;0.00;;;;;12.47;100.00;99662.66;5091241;27;45510;-76
2022/11/16 07:28:27;;;;;;;;;1.00;1.00;;;;;12.47;100.00;99652.06;5089729;27;45512;-76
2022/11/16 07:30:52;;;;;;;;;1.67;0.33;;;;;12.49;100.00;99656.41;5094861;27;45503;-75
2022/11/16 07:33:17;;;;;;;;;0.67;0.67;;;;;12.49;100.00;99651.13;5086137;27;61431;-76
2022/11/16 07:35:43;;;;;;;;;4.00;0.67;;;;;12.51;100.00;99651.94;5053754;27;46168;-76
2022/11/16 07:38:08;;;;;;;;;2.00;0.33;;;;;12.53;100.00;99646.66;5069537;27;61471;-77
2022/11/16 07:40:33;;;;;;;;;1.00;1.00;;;;;12.55;100.00;99650.13;5072016;27;45551;-76
2022/11/16 07:42:59;;;;;;;;;1.00;1.00;;;;;12.55;100.00;99651.00;5089328;27;65977;-76
2022/11/16 07:45:24;;;;;;;;;2.00;0.00;;;;;12.59;100.00;99651.84;5071046;27;56041;-75
2022/11/16 07:47:52;;;;;;;;;8.33;1.00;;;;;12.60;100.00;99653.59;5070699;28;51498;-75
2022/11/16 07:50:17;;;;;;;;;1.00;1.00;;;;;12.63;100.00;99640.31;5081875;27;45547;-76
2022/11/16 07:52:45;;;;;;;;;0.33;0.00;;;;;12.67;100.00;99649.06;5067258;27;60391;-76
2022/11/16 07:55:11;;;;;;;;;2.67;1.00;;;;;12.71;100.00;99641.03;5080101;27;45423;-76
2022/11/16 07:57:36;;;;;;;;;1.00;1.00;;;;;12.75;100.00;99642.75;5075451;27;45319;-75
2022/11/16 08:00:06;;;;;;;;;4.67;2.00;;;;;12.84;100.00;99654.97;5091332;27;57833;-75
2022/11/16 08:02:31;;;;;;;;;1.00;1.00;;;;;12.89;100.00;99661.06;5095003;27;45950;-76
2022/11/16 08:04:56;;;;;;;;;5.00;1.00;;;;;12.93;100.00;99659.22;5069750;27;68789;-76
2022/11/16 08:07:22;;;;;;;;;2.00;1.00;;;;;12.94;100.00;99651.22;5087561;27;59436;-75
2022/11/16 08:09:48;;;;;;;;;2.00;2.00;;;;;13.01;100.00;99657.31;5090433;27;45544;-75
2022/11/16 08:12:14;;;;;;;;;3.33;0.67;;;;;13.00;100.00;99655.56;5088198;27;45338;-77
2022/11/16 08:14:40;;;;;;;;;5.00;1.00;;;;;13.06;100.00;99656.34;5083140;27;45443;-76
2022/11/16 08:17:07;;;;;;;;;3.00;1.67;;;;;13.11;100.00;99661.56;5067113;27;55771;-78
2022/11/16 08:19:32;;;;;;;;;4.00;1.00;;;;;13.14;100.00;99652.66;5052145;27;45294;-79
2022/11/16 08:21:58;;;;;;;;;3.00;0.00;;;;;13.15;100.00;99657.06;5074972;27;45574;-77
2022/11/16 08:24:24;;;;;;;;;1.33;1.33;;;;;13.19;100.00;99656.97;5086836;27;57030;-76
2022/11/16 08:26:49;;;;;;;;;4.00;1.00;;;;;13.20;100.00;99656.06;5090981;27;45577;-76
2022/11/16 08:29:14;;;;;;;;;1.00;1.00;;;;;13.23;100.00;99665.78;5070571;28;45587;-80
2022/11/16 08:31:43;;;;;;;;;1.00;1.00;;;;;13.24;100.00;99657.78;5072077;27;48214;-77
2022/11/16 08:34:08;;;;;;;;;3.00;0.00;;;;;13.27;100.00;99652.44;5068940;27;45648;-76
2022/11/16 08:36:33;;;;;;;;;1.00;1.00;;;;;13.29;100.00;99663.88;5085161;27;59407;-74
2022/11/16 08:38:59;;;;;;;;;1.00;1.00;;;;;13.31;100.00;99658.53;5069284;27;45527;-76
2022/11/16 08:41:24;;;;;;;;;0.00;0.00;;;;;13.33;100.00;99670.88;5076007;27;70023;-77
2022/11/16 08:43:49;;;;;;;;;3.00;1.00;;;;;13.34;100.00;99658.50;5085413;27;50406;-77
2022/11/16 08:46:15;;;;;;;;;1.00;1.00;;;;;13.39;100.00;99666.38;5091123;27;45418;-77
2022/11/16 08:48:41;;;;;;;;;3.67;0.00;;;;;13.39;100.00;99647.81;5084805;27;45441;-77
2022/11/16 08:51:09;;;;;;;;;4.67;0.00;;;;;13.39;100.00;99650.47;5093501;27;49257;-77
2022/11/16 08:53:34;;;;;;;;;2.00;1.00;;;;;13.43;100.00;99652.16;5069659;27;45495;-77
2022/11/16 08:56:12;;;;;;;;;2.00;0.33;;;;;13.45;100.00;99651.22;5082593;27;45869;-77
2022/11/16 08:58:37;;;;;;;;;4.67;1.00;;;;;13.49;100.00;99649.38;5073389;27;45690;-78
2022/11/16 09:01:12;;;;;;;;;3.00;2.00;;;;;13.47;100.00;99657.34;5055251;27;48522;-77
2022/11/16 09:03:38;;;;;;;;;1.33;0.00;;;;;13.51;100.00;99650.22;5078030;27;45607;-77
2022/11/16 09:06:04;;;;;;;;;1.00;0.00;;;;;13.48;100.00;99640.56;5077552;27;45554;-77
2022/11/16 09:08:29;;;;;;;;;5.67;1.00;;;;;13.56;100.00;99635.97;5091594;27;45279;-77
2022/11/16 09:10:54;;;;;;;;;2.00;1.00;;;;;13.65;100.00;99637.56;5094653;27;65213;-78
2022/11/16 09:13:20;;;;;;;;;0.00;0.00;;;;;13.75;100.00;99638.25;5084922;27;55491;-76
2022/11/16 09:15:45;;;;;;;;;2.33;0.00;;;;;13.90;100.00;99640.53;5094106;27;51517;-76
2022/11/16 09:18:10;;;;;;;;;1.00;1.00;;;;;14.08;100.00;99634.84;5096562;27;58540;-77
2022/11/16 09:20:36;;;;;;;;;1.00;1.00;;;;;14.25;100.00;99630.94;5088382;27;58542;-76
2022/11/16 09:23:01;;;;;;;;;2.33;1.00;;;;;14.31;100.00;99634.31;5078668;27;49733;-76
2022/11/16 09:25:26;;;;;;;;;2.33;0.00;;;;;14.38;100.00;99638.59;5088674;27;51868;-76
2022/11/16 09:27:54;;;;;;;;;4.00;0.33;;;;;14.45;100.00;99631.34;5095330;27;56467;-76
2022/11/16 09:30:20;;;;;;;;;1.00;0.00;;;;;14.51;100.00;99625.03;5096739;27;46527;-77
2022/11/16 09:32:45;;;;;;;;;0.67;0.00;;;;;14.56;100.00;99623.16;5071920;27;45637;-78
2022/11/16 09:35:10;;;;;;;;;2.00;1.00;;;;;14.62;100.00;99623.00;5088179;27;58796;-77
2022/11/16 09:37:36;;;;;;;;;0.00;0.00;;;;;14.68;100.00;99621.03;5057708;27;45506;-80
2022/11/16 09:40:01;;;;;;;;;2.00;1.00;;;;;14.71;100.00;99619.25;5087830;27;62004;-77
2022/11/16 09:43:02;;;;;;;;;5.00;1.00;;;;;14.72;100.00;99607.69;5086237;27;53427;-76
2022/11/16 09:45:34;;;;;;;;;0.67;0.67;;;;;14.70;100.00;99614.81;5066052;27;45519;-77
2022/11/16 09:48:02;;;;;;;;;4.00;1.00;;;;;14.64;100.00;99605.22;5070314;27;45640;-76
2022/11/16 09:50:38;;;;;;;;;1.33;0.00;;;;;14.62;100.00;99607.03;5071344;27;45852;-76
2022/11/16 09:53:18;;;;;;;;;1.00;1.00;;;;;14.57;100.00;99612.47;5070215;27;45395;-75
2022/11/16 09:55:50;;;;;;;;;1.00;1.00;;;;;14.56;100.00;99601.91;5090000;27;45470;-76
2022/11/16 09:58:21;;;;;;;;;3.00;1.67;;;;;14.61;100.00;99605.31;5090627;27;45562;-76
2022/11/16 10:00:53;;;;;;;;;3.33;1.00;;;;;14.66;100.00;99603.41;5087417;27;47515;-76
2022/11/16 10:03:19;;;;;;;;;2.00;0.00;;;;;14.72;100.00;99613.88;5093056;27;45533;-76
2022/11/16 10:05:58;;;;;;;;;3.00;0.33;;;;;14.76;100.00;99612.91;5076088;27;49037;-78
2022/11/16 10:08:41;;;;;;;;;1.67;0.33;;;;;14.76;100.00;99606.72;5077399;27;45594;-79
2022/11/16 10:11:10;;;;;;;;;2.67;0.67;;;;;14.78;100.00;99607.53;5076904;27;47189;-79
2022/11/16 10:13:58;;;;;;;;;0.00;0.00;;;;;14.79;100.00;99606.63;5074622;27;45540;-78
2022/11/16 10:16:53;;;;;;;;;2.00;0.00;;;;;14.79;100.00;99610.13;5084318;27;45374;-78
2022/11/16 10:19:37;;;;;;;;;2.33;1.00;;;;;14.79;100.00;99625.22;5053206;27;45682;-78
2022/11/16 10:22:11;;;;;;;;;1.00;0.00;;;;;14.81;100.00;99623.41;5087524;27;47307;-78
2022/11/16 10:24:52;;;;;;;;;2.67;0.00;;;;;14.87;100.00;99625.91;5095429;27;45518;-78
2022/11/16 10:27:31;;;;;;;;;4.00;0.33;;;;;14.89;100.00;99635.56;5073453;28;45283;-76
2022/11/16 10:30:11;;;;;;;;;0.00;0.00;;;;;14.88;100.00;99615.22;5079374;27;45570;-79
2022/11/16 10:32:44;;;;;;;;;0.67;0.33;;;;;14.85;100.00;99625.91;5072498;27;47613;-79
2022/11/16 10:35:09;;;;;;;;;0.67;0.00;;;;;14.78;100.00;99626.13;5077174;27;45403;-78
2022/11/16 10:37:39;;;;;;;;;0.00;0.00;;;;;14.70;100.00;99628.09;5073700;27;45768;-77
2022/11/16 10:40:16;;;;;;;;;0.67;0.00;;;;;14.62;100.00;99623.84;5053048;27;45556;-79
2022/11/16 10:42:43;;;;;;;;;3.00;0.00;;;;;14.57;100.00;99623.09;5094383;27;46626;-79
2022/11/16 10:45:19;;;;;;;;;0.00;0.00;;;;;14.56;100.00;99617.84;5075079;27;45529;-78
2022/11/16 10:47:56;;;;;;;;;0.33;0.00;;;;;14.62;100.00;99617.69;5054117;27;45872;-78
2022/11/16 10:50:24;;;;;;;;;0.00;0.00;;;;;14.70;100.00;99599.78;5077507;27;45500;-78
2022/11/16 10:52:49;;;;;;;;;0.00;0.00;;;;;14.78;100.00;99596.91;5088126;27;45829;-76
2022/11/16 10:55:15;;;;;;;;;0.67;0.33;;;;;14.86;100.00;99600.22;5068744;27;62122;-77
2022/11/16 10:58:03;;;;;;;;;1.00;1.00;;;;;14.88;100.00;99585.13;5090695;27;45372;-76
2022/11/16 11:00:38;;;;;;;;;1.33;0.00;;;;;14.86;100.00;99592.25;5058456;27;45613;-76
2022/11/16 11:03:03;;;;;;;;;1.00;0.00;;;;;14.87;100.00;99578.94;5078472;27;48515;-76
2022/11/16 11:05:29;;;;;;;;;2.67;1.00;;;;;14.90;100.00;99580.63;5094188;27;45537;-76
2022/11/16 11:08:10;;;;;;;;;3.00;0.00;;;;;14.89;100.00;99569.13;5073629;27;45458;-76
2022/11/16 11:10:40;;;;;;;;;3.00;0.00;;;;;14.92;100.00;99566.41;5071616;27;45578;-77
2022/11/16 11:13:09;;;;;;;;;2.00;0.00;;;;;14.97;100.00;99560.97;5076748;27;46863;-76
2022/11/16 11:15:34;;;;;;;;;2.00;0.00;;;;;15.03;100.00;99559.91;5095331;27;45446;-76
2022/11/16 11:18:12;;;;;;;;;3.33;0.00;;;;;15.09;100.00;99559.75;5068062;27;45489;-79
2022/11/16 11:20:40;;;;;;;;;3.00;1.00;;;;;15.12;100.00;99559.66;5086992;27;45631;-74
2022/11/16 11:23:16;;;;;;;;;0.67;0.00;;;;;15.17;100.00;99558.59;5090801;27;46553;-76
2022/11/16 11:25:53;;;;;;;;;1.00;0.00;;;;;15.21;100.00;99562.06;5069716;27;45515;-81
2022/11/16 11:28:34;;;;;;;;;2.67;0.00;;;;;15.24;100.00;99551.34;5074921;27;46459;-77
2022/11/16 11:31:37;;;;;;;;;0.00;0.00;;;;;15.28;100.00;99534.34;5057932;27;46455;-76
2022/11/16 11:34:25;;;;;;;;;3.33;1.00;;;;;15.31;100.00;99538.72;5063020;27;46834;-78
2022/11/16 11:36:53;;;;;;;;;0.00;0.00;;;;;15.37;100.00;99543.88;5052955;28;46160;-76
2022/11/16 11:39:18;;;;;;;;;2.00;0.33;;;;;15.42;100.00;99539.28;5087728;27;45335;-78
2022/11/16 11:41:45;;;;;;;;;2.00;1.00;;;;;15.48;100.00;99538.22;5075852;27;45190;-81
2022/11/16 11:44:16;;;;;;;;;2.00;1.00;;;;;15.50;100.00;99529.31;5095597;27;47010;-77
2022/11/16 11:46:50;;;;;;;;;2.00;0.67;;;;;15.55;100.00;99530.00;5075591;27;45935;-79
2022/11/16 11:49:22;;;;;;;;;1.00;1.00;;;;;15.57;100.00;99530.84;5095156;27;46521;-78
2022/11/16 11:51:48;;;;;;;;;1.00;1.00;;;;;15.60;100.00;99530.75;5074369;27;45371;-78
2022/11/16 11:54:23;;;;;;;;;1.00;0.00;;;;;15.62;100.00;99534.25;5091235;27;46571;-77
2022/11/16 11:56:48;;;;;;;;;1.00;1.00;;;;;15.66;100.00;99530.63;5066521;27;45600;-78
2022/11/16 11:59:18;;;;;;;;;3.00;1.00;;;;;15.68;100.00;99533.22;5068625;27;53012;-75
2022/11/16 12:01:55;;;;;;;;;1.67;1.00;;;;;15.69;100.00;99529.63;5089862;27;45570;-75
2022/11/16 12:04:48;;;;;;;;;0.33;0.33;;;;;15.73;100.00;99519.78;5083769;27;46420;-79
2022/11/16 12:07:26;;;;;;;;;2.00;0.00;;;;;15.76;100.00;99522.31;5074189;27;45674;-77
2022/11/16 12:09:57;;;;;;;;;6.00;1.00;;;;;15.80;100.00;99529.31;5091299;27;45321;-76
2022/11/16 12:12:31;;;;;;;;;2.00;0.33;;;;;15.85;100.00;99514.06;5091557;27;46306;-76